createdAt,value
2024-04-12T00:01:42.374Z,1029.49
2024-04-12T00:03:27.412Z,1029.51
2024-04-12T00:05:12.412Z,1029.58
2024-04-12T00:06:57.375Z,1029.39
2024-04-12T00:08:42.388Z,1029.47
2024-04-12T00:10:27.446Z,1029.46
2024-04-12T00:12:12.438Z,1029.49
2024-04-12T00:13:57.380Z,1029.44
2024-04-12T00:15:42.405Z,1029.4
2024-04-12T00:17:27.442Z,1029.47
2024-04-12T00:19:12.389Z,1029.42
2024-04-12T00:20:57.390Z,1029.54
2024-04-12T00:22:42.382Z,1029.51
2024-04-12T00:24:27.520Z,1029.43
2024-04-12T00:26:12.408Z,1029.44
2024-04-12T00:27:57.396Z,1029.4
2024-04-12T00:29:42.414Z,1029.32
2024-04-12T00:31:27.378Z,1029.37
2024-04-12T00:33:12.685Z,1029.35
2024-04-12T00:34:57.433Z,1029.36
2024-04-12T00:36:42.421Z,1029.41
2024-04-12T00:38:27.414Z,1029.38
2024-04-12T00:40:12.437Z,1029.4
2024-04-12T00:41:57.460Z,1029.4
2024-04-12T00:43:42.430Z,1029.42
2024-04-12T00:45:27.441Z,1029.34
2024-04-12T00:47:12.520Z,1029.31
2024-04-12T00:48:57.528Z,1029.29
2024-04-12T00:50:42.543Z,1029.19
2024-04-12T00:52:27.425Z,1029.12
2024-04-12T00:54:12.429Z,1029.24
2024-04-12T00:55:57.478Z,1029.22
2024-04-12T00:57:42.446Z,1029.19
2024-04-12T00:59:27.473Z,1029.22
2024-04-12T01:01:12.847Z,1029.17
2024-04-12T01:02:57.535Z,1029.28
2024-04-12T01:04:42.473Z,1029.26
2024-04-12T01:06:27.466Z,1029.27
2024-04-12T01:08:12.449Z,1029.22
2024-04-12T01:09:57.453Z,1029.15
2024-04-12T01:11:42.508Z,1029.13
2024-04-12T01:13:27.462Z,1029.06
2024-04-12T01:15:12.528Z,1029
2024-04-12T01:16:57.479Z,1028.86
2024-04-12T01:18:42.570Z,1028.97
2024-04-12T01:20:27.487Z,1028.87
2024-04-12T01:22:12.490Z,1028.8
2024-04-12T01:23:57.545Z,1028.83
2024-04-12T01:25:42.495Z,1028.85
2024-04-12T01:27:27.474Z,1028.84
2024-04-12T01:29:12.476Z,1028.77
2024-04-12T01:30:57.524Z,1028.76
2024-04-12T01:32:42.560Z,1028.79
2024-04-12T01:34:27.541Z,1028.78
2024-04-12T01:36:12.628Z,1028.78
2024-04-12T01:37:57.477Z,1028.71
2024-04-12T01:39:42.506Z,1028.67
2024-04-12T01:41:27.494Z,1028.63
2024-04-12T01:43:12.494Z,1028.61
2024-04-12T01:44:57.528Z,1028.68
2024-04-12T01:46:42.523Z,1028.73
2024-04-12T01:48:27.618Z,1028.71
2024-04-12T01:50:12.511Z,1028.71
2024-04-12T01:51:57.537Z,1028.66
2024-04-12T01:53:42.548Z,1028.74
2024-04-12T01:55:27.529Z,1028.71
2024-04-12T01:57:12.570Z,1028.7
2024-04-12T01:58:57.544Z,1028.66
2024-04-12T02:00:42.557Z,1028.64
2024-04-12T02:02:27.574Z,1028.7
2024-04-12T02:04:12.654Z,1028.66
2024-04-12T02:05:57.573Z,1028.68
2024-04-12T02:07:42.540Z,1028.48
2024-04-12T02:09:27.575Z,1028.6
2024-04-12T02:11:12.565Z,1028.63
2024-04-12T02:12:57.564Z,1028.67
2024-04-12T02:14:42.587Z,1028.55
2024-04-12T02:16:27.562Z,1028.52
2024-04-12T02:18:12.652Z,1028.58
2024-04-12T02:19:57.544Z,1028.5
2024-04-12T02:21:42.616Z,1028.51
2024-04-12T02:23:27.582Z,1028.56
2024-04-12T02:25:12.564Z,1028.45
2024-04-12T02:26:57.613Z,1028.59
2024-04-12T02:28:42.555Z,1028.5
2024-04-12T02:30:27.585Z,1028.55
2024-04-12T02:32:12.591Z,1028.54
2024-04-12T02:33:57.573Z,1028.56
2024-04-12T02:35:42.871Z,1028.58
2024-04-12T02:37:27.576Z,1028.47
2024-04-12T02:39:12.630Z,1028.46
2024-04-12T02:40:57.592Z,1028.44
2024-04-12T02:42:42.564Z,1028.56
2024-04-12T02:44:27.627Z,1028.54
2024-04-12T02:46:12.605Z,1028.5
2024-04-12T02:47:57.689Z,1028.59
2024-04-12T02:49:42.614Z,1028.61
2024-04-12T02:51:27.586Z,1028.57
2024-04-12T02:53:12.592Z,1028.58
2024-04-12T02:54:57.616Z,1028.55
2024-04-12T02:56:42.617Z,1028.59
2024-04-12T02:58:27.616Z,1028.66
2024-04-12T03:00:12.639Z,1028.65
2024-04-12T03:01:57.646Z,1028.65
2024-04-12T03:03:42.682Z,1028.73
2024-04-12T03:05:27.635Z,1028.68
2024-04-12T03:07:12.633Z,1028.76
2024-04-12T03:08:57.665Z,1028.77
2024-04-12T03:10:42.629Z,1028.84
2024-04-12T03:12:27.731Z,1028.82
2024-04-12T03:14:12.631Z,1028.82
2024-04-12T03:15:57.645Z,1028.78
2024-04-12T03:17:42.682Z,1028.74
2024-04-12T03:19:27.648Z,1028.64
2024-04-12T03:21:12.669Z,1028.66
2024-04-12T03:22:57.633Z,1028.68
2024-04-12T03:24:42.664Z,1028.68
2024-04-12T03:26:27.632Z,1028.77
2024-04-12T03:28:12.668Z,1028.88
2024-04-12T03:29:57.653Z,1028.75
2024-04-12T03:31:42.673Z,1028.72
2024-04-12T03:33:27.704Z,1028.71
2024-04-12T03:35:12.678Z,1028.67
2024-04-12T03:36:57.670Z,1028.65
2024-04-12T03:38:42.667Z,1028.62
2024-04-12T03:40:27.647Z,1028.55
2024-04-12T03:42:12.712Z,1028.62
2024-04-12T03:43:57.677Z,1028.58
2024-04-12T03:45:42.655Z,1028.49
2024-04-12T03:47:27.660Z,1028.59
2024-04-12T03:49:12.729Z,1028.58
2024-04-12T03:50:57.697Z,1028.53
2024-04-12T03:52:44.388Z,1028.59
2024-04-12T03:54:27.677Z,1028.47
2024-04-12T03:56:12.710Z,1028.54
2024-04-12T03:57:57.701Z,1028.53
2024-04-12T03:59:42.713Z,1028.52
2024-04-12T04:01:27.757Z,1028.6
2024-04-12T04:03:12.700Z,1028.45
2024-04-12T04:04:57.746Z,1028.53
2024-04-12T04:06:42.693Z,1028.52
2024-04-12T04:08:27.723Z,1028.36
2024-04-12T04:10:12.724Z,1028.5
2024-04-12T04:11:57.723Z,1028.57
2024-04-12T04:13:42.692Z,1028.56
2024-04-12T04:15:27.736Z,1028.52
2024-04-12T04:17:12.707Z,1028.59
2024-04-12T04:18:57.798Z,1028.55
2024-04-12T04:20:42.740Z,1028.57
2024-04-12T04:22:27.737Z,1028.56
2024-04-12T04:24:12.814Z,1028.51
2024-04-12T04:25:57.742Z,1028.48
2024-04-12T04:27:42.739Z,1028.57
2024-04-12T04:29:27.739Z,1028.64
2024-04-12T04:31:14.509Z,1028.66
2024-04-12T04:32:57.773Z,1028.48
2024-04-12T04:34:42.747Z,1028.52
2024-04-12T04:36:27.737Z,1028.49
2024-04-12T04:38:15.801Z,1028.55
2024-04-12T04:39:58.993Z,1028.47
2024-04-12T04:41:44.024Z,1028.47
2024-04-12T04:43:29.020Z,1028.46
2024-04-12T04:45:12.796Z,1028.48
2024-04-12T04:46:57.767Z,1028.51
2024-04-12T04:48:42.824Z,1028.53
2024-04-12T04:50:27.764Z,1028.47
2024-04-12T04:52:13.063Z,1028.46
2024-04-12T04:53:57.756Z,1028.45
2024-04-12T04:55:42.805Z,1028.43
2024-04-12T04:57:27.789Z,1028.4
2024-04-12T04:59:12.750Z,1028.33
2024-04-12T05:00:57.791Z,1028.3
2024-04-12T05:02:42.770Z,1028.4
2024-04-12T05:04:27.770Z,1028.3
2024-04-12T05:06:12.787Z,1028.2
2024-04-12T05:07:57.960Z,1028.19
2024-04-12T05:09:42.756Z,1028.29
2024-04-12T05:11:27.857Z,1028.2
2024-04-12T05:13:12.871Z,1028.34
2024-04-12T05:14:57.786Z,1028.26
2024-04-12T05:16:42.789Z,1028.41
2024-04-12T05:18:27.874Z,1028.41
2024-04-12T05:20:12.778Z,1028.41
2024-04-12T05:21:57.828Z,1028.37
2024-04-12T05:23:42.846Z,1028.47
2024-04-12T05:25:27.797Z,1028.34
2024-04-12T05:27:13.275Z,1028.45
2024-04-12T05:28:57.829Z,1028.4
2024-04-12T05:30:42.811Z,1028.4
2024-04-12T05:32:28.190Z,1028.41
2024-04-12T05:34:12.832Z,1028.45
2024-04-12T05:35:57.855Z,1028.39
2024-04-12T05:37:42.804Z,1028.54
2024-04-12T05:39:27.872Z,1028.55
2024-04-12T05:41:12.830Z,1028.44
2024-04-12T05:42:57.847Z,1028.38
2024-04-12T05:44:42.911Z,1028.36
2024-04-12T05:46:27.822Z,1028.44
2024-04-12T05:48:12.918Z,1028.42
2024-04-12T05:49:57.844Z,1028.41
2024-04-12T05:51:42.860Z,1028.42
2024-04-12T05:53:27.842Z,1028.43
2024-04-12T05:55:12.848Z,1028.46
2024-04-12T05:56:57.860Z,1028.51
2024-04-12T05:58:42.906Z,1028.49
2024-04-12T06:00:27.854Z,1028.55
2024-04-12T06:02:12.923Z,1028.58
2024-04-12T06:03:58.079Z,1028.73
2024-04-12T06:05:42.935Z,1028.56
2024-04-12T06:07:27.889Z,1028.59
2024-04-12T06:09:14.957Z,1028.45
2024-04-12T06:10:57.856Z,1028.44
2024-04-12T06:12:42.878Z,1028.48
2024-04-12T06:14:27.890Z,1028.55
2024-04-12T06:16:12.914Z,1028.46
2024-04-12T06:17:57.973Z,1028.49
2024-04-12T06:19:42.918Z,1028.53
2024-04-12T06:21:27.896Z,1028.53
2024-04-12T06:23:12.936Z,1028.43
2024-04-12T06:24:57.918Z,1028.55
2024-04-12T06:26:42.948Z,1028.55
2024-04-12T06:28:27.911Z,1028.51
2024-04-12T06:30:12.980Z,1028.61
2024-04-12T06:31:57.897Z,1028.48
2024-04-12T06:33:42.956Z,1028.43
2024-04-12T06:35:27.949Z,1028.49
2024-04-12T06:37:12.907Z,1028.54
2024-04-12T06:38:57.915Z,1028.56
2024-04-12T06:40:42.924Z,1028.46
2024-04-12T06:42:27.950Z,1028.56
2024-04-12T06:44:12.904Z,1028.42
2024-04-12T06:45:57.968Z,1028.47
2024-04-12T06:47:43.098Z,1028.4
2024-04-12T06:49:27.954Z,1028.35
2024-04-12T06:51:13.206Z,1028.34
2024-04-12T06:52:57.918Z,1028.46
2024-04-12T06:54:43.083Z,1028.45
2024-04-12T06:56:27.951Z,1028.38
2024-04-12T06:58:12.932Z,1028.41
2024-04-12T06:59:57.978Z,1028.36
2024-04-12T07:01:42.988Z,1028.36
2024-04-12T07:03:28.139Z,1028.41
2024-04-12T07:05:12.966Z,1028.51
2024-04-12T07:06:57.989Z,1028.42
2024-04-12T07:08:42.982Z,1028.48
2024-04-12T07:10:27.958Z,1028.44
2024-04-12T07:12:13.012Z,1028.5
2024-04-12T07:13:58.010Z,1028.42
2024-04-12T07:15:43.043Z,1028.46
2024-04-12T07:17:28.037Z,1028.5
2024-04-12T07:19:12.953Z,1028.43
2024-04-12T07:20:58.005Z,1028.48
2024-04-12T07:22:43.019Z,1028.52
2024-04-12T07:24:27.979Z,1028.55
2024-04-12T07:26:12.979Z,1028.49
2024-04-12T07:27:58.026Z,1028.48
2024-04-12T07:29:42.998Z,1028.47
2024-04-12T07:31:27.982Z,1028.47
2024-04-12T07:33:13.115Z,1028.42
2024-04-12T07:34:58.022Z,1028.39
2024-04-12T07:36:42.998Z,1028.43
2024-04-12T07:38:28.013Z,1028.44
2024-04-12T07:40:13.024Z,1028.48
2024-04-12T07:41:58.054Z,1028.4
2024-04-12T07:43:43.001Z,1028.49
2024-04-12T07:45:28.019Z,1028.41
2024-04-12T07:47:13.043Z,1028.39
2024-04-12T07:48:58.121Z,1028.46
2024-04-12T07:50:43.079Z,1028.42
2024-04-12T07:52:28.025Z,1028.47
2024-04-12T07:54:13.424Z,1028.54
2024-04-12T07:55:58.095Z,1028.44
2024-04-12T07:57:43.017Z,1028.55
2024-04-12T07:59:28.035Z,1028.41
2024-04-12T08:01:13.055Z,1028.4
2024-04-12T08:02:58.086Z,1028.48
2024-04-12T08:04:43.052Z,1028.51
2024-04-12T08:06:28.045Z,1028.46
2024-04-12T08:08:13.034Z,1028.53
2024-04-12T08:09:58.060Z,1028.45
2024-04-12T08:11:43.410Z,1028.51
2024-04-12T08:13:28.028Z,1028.42
2024-04-12T08:15:13.110Z,1028.53
2024-04-12T08:16:58.130Z,1028.53
2024-04-12T08:18:43.074Z,1028.48
2024-04-12T08:20:28.167Z,1028.52
2024-04-12T08:22:13.080Z,1028.54
2024-04-12T08:23:58.102Z,1028.57
2024-04-12T08:25:43.069Z,1028.39
2024-04-12T08:27:28.043Z,1028.48
2024-04-12T08:29:13.078Z,1028.43
2024-04-12T08:30:58.091Z,1028.5
2024-04-12T08:32:43.115Z,1028.41
2024-04-12T08:34:28.055Z,1028.54
2024-04-12T08:36:13.237Z,1028.48
2024-04-12T08:37:58.048Z,1028.53
2024-04-12T08:39:43.080Z,1028.51
2024-04-12T08:41:28.105Z,1028.45
2024-04-12T08:43:13.090Z,1028.53
2024-04-12T08:44:58.090Z,1028.51
2024-04-12T08:46:43.115Z,1028.53
2024-04-12T08:48:28.179Z,1028.5
2024-04-12T08:50:13.078Z,1028.52
2024-04-12T08:51:58.129Z,1028.48
2024-04-12T08:53:43.129Z,1028.55
2024-04-12T08:55:28.171Z,1028.57
2024-04-12T08:57:13.729Z,1028.55
2024-04-12T08:58:58.139Z,1028.53
2024-04-12T09:00:43.247Z,1028.52
2024-04-12T09:02:28.425Z,1028.51
2024-04-12T09:04:13.301Z,1028.62
2024-04-12T09:05:58.228Z,1028.53
2024-04-12T09:07:43.112Z,1028.54
2024-04-12T09:09:28.154Z,1028.54
2024-04-12T09:11:13.152Z,1028.54
2024-04-12T09:12:58.133Z,1028.5
2024-04-12T09:14:43.126Z,1028.54
2024-04-12T09:16:29.652Z,1028.56
2024-04-12T09:18:13.501Z,1028.64
2024-04-12T09:19:58.158Z,1028.65
2024-04-12T09:21:43.117Z,1028.6
2024-04-12T09:23:28.225Z,1028.62
2024-04-12T09:25:13.168Z,1028.72
2024-04-12T09:26:58.193Z,1028.66
2024-04-12T09:28:43.135Z,1028.71
2024-04-12T09:30:28.177Z,1028.71
2024-04-12T09:32:13.165Z,1028.7
2024-04-12T09:33:58.573Z,1028.6
2024-04-12T09:35:43.254Z,1028.61
2024-04-12T09:37:28.154Z,1028.58
2024-04-12T09:39:13.193Z,1028.63
2024-04-12T09:40:58.161Z,1028.59
2024-04-12T09:42:43.211Z,1028.61
2024-04-12T09:44:28.168Z,1028.59
2024-04-12T09:46:13.144Z,1028.58
2024-04-12T09:47:58.293Z,1028.56
2024-04-12T09:49:43.159Z,1028.59
2024-04-12T09:51:28.190Z,1028.59
2024-04-12T09:53:13.217Z,1028.61
2024-04-12T09:54:58.205Z,1028.58
2024-04-12T09:56:43.192Z,1028.61
2024-04-12T09:58:28.218Z,1028.56
2024-04-12T10:00:13.279Z,1028.62
2024-04-12T10:01:58.202Z,1028.57
2024-04-12T10:03:43.268Z,1028.62
2024-04-12T10:05:28.203Z,1028.59
2024-04-12T10:07:13.198Z,1028.67
2024-04-12T10:08:58.221Z,1028.55
2024-04-12T10:10:43.317Z,1028.59
2024-04-12T10:12:28.268Z,1028.54
2024-04-12T10:14:13.186Z,1028.61
2024-04-12T10:15:58.204Z,1028.56
2024-04-12T10:17:43.275Z,1028.47
2024-04-12T10:19:28.517Z,1028.53
2024-04-12T10:21:13.298Z,1028.52
2024-04-12T10:22:58.200Z,1028.53
2024-04-12T10:24:43.528Z,1028.51
2024-04-12T10:26:28.518Z,1028.46
2024-04-12T10:28:13.202Z,1028.51
2024-04-12T10:29:58.227Z,1028.49
2024-04-12T10:31:43.217Z,1028.5
2024-04-12T10:33:28.285Z,1028.49
2024-04-12T10:35:13.245Z,1028.51
2024-04-12T10:36:58.227Z,1028.36
2024-04-12T10:38:45.243Z,1028.42
2024-04-12T10:40:28.913Z,1028.47
2024-04-12T10:42:13.329Z,1028.44
2024-04-12T10:43:58.229Z,1028.35
2024-04-12T10:45:43.262Z,1028.31
2024-04-12T10:47:28.232Z,1028.37
2024-04-12T10:49:13.233Z,1028.2
2024-04-12T10:50:58.266Z,1028.3
2024-04-12T10:52:43.667Z,1028.26
2024-04-12T10:54:28.247Z,1028.2
2024-04-12T10:56:13.354Z,1028.2
2024-04-12T10:57:58.295Z,1028.25
2024-04-12T10:59:43.258Z,1028.13
2024-04-12T11:01:28.566Z,1028.21
2024-04-12T11:03:15.070Z,1028.23
2024-04-12T11:05:00.293Z,1028.11
2024-04-12T11:06:43.554Z,1028.2
2024-04-12T11:08:28.301Z,1028.19
2024-04-12T11:10:13.290Z,1028
2024-04-12T11:11:58.395Z,1028.02
2024-04-12T11:13:43.351Z,1028.01
2024-04-12T11:15:28.270Z,1027.97
2024-04-12T11:17:13.285Z,1027.96
2024-04-12T11:18:58.372Z,1027.89
2024-04-12T11:20:43.306Z,1027.95
2024-04-12T11:22:28.284Z,1027.86
2024-04-12T11:24:13.335Z,1027.9
2024-04-12T11:25:58.294Z,1027.77
2024-04-12T11:27:43.303Z,1027.86
2024-04-12T11:29:28.345Z,1027.81
2024-04-12T11:31:13.337Z,1027.75
2024-04-12T11:32:58.342Z,1027.77
2024-04-12T11:34:43.365Z,1027.9
2024-04-12T11:36:28.283Z,1027.78
2024-04-12T11:38:13.291Z,1027.77
2024-04-12T11:39:58.279Z,1027.8
2024-04-12T11:41:43.313Z,1027.79
2024-04-12T11:43:30.969Z,1027.77
2024-04-12T11:45:13.394Z,1027.79
2024-04-12T11:46:58.298Z,1027.75
2024-04-12T11:48:43.405Z,1027.78
2024-04-12T11:50:28.443Z,1027.78
2024-04-12T11:52:13.330Z,1027.76
2024-04-12T11:53:58.388Z,1027.79
2024-04-12T11:55:43.311Z,1027.75
2024-04-12T11:57:28.728Z,1027.68
2024-04-12T11:59:13.346Z,1027.78
2024-04-12T12:00:58.449Z,1027.75
2024-04-12T12:02:43.429Z,1027.85
2024-04-12T12:04:28.368Z,1027.69
2024-04-12T12:06:13.378Z,1027.72
2024-04-12T12:07:58.346Z,1027.72
2024-04-12T12:09:43.393Z,1027.67
2024-04-12T12:11:28.342Z,1027.74
2024-04-12T12:13:15.831Z,1027.63
2024-04-12T12:14:58.415Z,1027.61
2024-04-12T12:16:43.422Z,1027.63
2024-04-12T12:18:28.457Z,1027.7
2024-04-12T12:20:13.335Z,1027.59
2024-04-12T12:21:58.425Z,1027.5
2024-04-12T12:23:43.411Z,1027.44
2024-04-12T12:25:28.351Z,1027.35
2024-04-12T12:27:13.403Z,1027.36
2024-04-12T12:28:58.353Z,1027.32
2024-04-12T12:30:43.355Z,1027.46
2024-04-12T12:32:28.409Z,1027.37
2024-04-12T12:34:13.465Z,1027.5
2024-04-12T12:35:58.386Z,1027.4
2024-04-12T12:37:43.353Z,1027.38
2024-04-12T12:39:28.370Z,1027.41
2024-04-12T12:41:13.386Z,1027.36
2024-04-12T12:42:58.382Z,1027.33
2024-04-12T12:44:43.408Z,1027.26
2024-04-12T12:46:28.374Z,1027.22
2024-04-12T12:48:13.499Z,1027.35
2024-04-12T12:49:58.368Z,1027.4
2024-04-12T12:51:43.385Z,1027.39
2024-04-12T12:53:28.518Z,1027.42
2024-04-12T12:55:13.375Z,1027.41
2024-04-12T12:56:58.461Z,1027.38
2024-04-12T12:58:43.449Z,1027.38
2024-04-12T13:00:28.399Z,1027.41
2024-04-12T13:02:13.480Z,1027.46
2024-04-12T13:03:58.479Z,1027.35
2024-04-12T13:05:43.381Z,1027.36
2024-04-12T13:07:28.402Z,1027.33
2024-04-12T13:09:13.413Z,1027.21
2024-04-12T13:10:59.645Z,1027.18
2024-04-12T13:12:43.384Z,1027.22
2024-04-12T13:14:28.446Z,1027.17
2024-04-12T13:16:13.397Z,1027.17
2024-04-12T13:17:58.464Z,1027.18
2024-04-12T13:19:43.602Z,1027.1
2024-04-12T13:21:28.429Z,1027.13
2024-04-12T13:23:13.452Z,1027.16
2024-04-12T13:24:58.395Z,1027.2
2024-04-12T13:26:43.428Z,1027.19
2024-04-12T13:28:28.457Z,1027.14
2024-04-12T13:30:13.467Z,1027.12
2024-04-12T13:31:58.461Z,1026.98
2024-04-12T13:33:43.469Z,1027.01
2024-04-12T13:35:28.472Z,1026.95
2024-04-12T13:37:13.435Z,1026.97
2024-04-12T13:38:58.446Z,1026.92
2024-04-12T13:40:43.462Z,1026.85
2024-04-12T13:42:28.456Z,1026.88
2024-04-12T13:44:13.457Z,1026.83
2024-04-12T13:45:58.490Z,1026.75
2024-04-12T13:47:43.542Z,1026.79
2024-04-12T13:49:28.501Z,1026.79
2024-04-12T13:51:13.502Z,1026.76
2024-04-12T13:52:58.727Z,1026.79
2024-04-12T13:54:43.491Z,1026.8
2024-04-12T13:56:28.506Z,1026.75
2024-04-12T13:58:13.505Z,1026.7
2024-04-12T13:59:58.546Z,1026.8
2024-04-12T14:01:43.511Z,1026.69
2024-04-12T14:03:28.667Z,1026.71
2024-04-12T14:05:13.506Z,1026.55
2024-04-12T14:06:58.522Z,1026.56
2024-04-12T14:08:43.551Z,1026.55
2024-04-12T14:10:28.520Z,1026.64
2024-04-12T14:12:13.526Z,1026.59
2024-04-12T14:13:58.518Z,1026.63
2024-04-12T14:15:43.519Z,1026.67
2024-04-12T14:17:28.532Z,1026.63
2024-04-12T14:19:13.564Z,1026.67
2024-04-12T14:20:58.606Z,1026.54
2024-04-12T14:22:43.548Z,1026.49
2024-04-12T14:24:28.541Z,1026.47
2024-04-12T14:26:13.517Z,1026.35
2024-04-12T14:27:58.497Z,1026.5
2024-04-12T14:29:43.572Z,1026.39
2024-04-12T14:31:28.582Z,1026.31
2024-04-12T14:33:13.601Z,1026.47
2024-04-12T14:35:05.640Z,1026.39
2024-04-12T14:36:43.551Z,1026.43
2024-04-12T14:38:30.497Z,1026.42
2024-04-12T14:40:13.555Z,1026.25
2024-04-12T14:41:58.551Z,1026.32
2024-04-12T14:43:43.542Z,1026.29
2024-04-12T14:45:28.600Z,1026.23
2024-04-12T14:47:13.551Z,1026.24
2024-04-12T14:48:58.585Z,1026.24
2024-04-12T14:50:43.910Z,1026.25
2024-04-12T14:52:28.633Z,1026.24
2024-04-12T14:54:13.604Z,1026.33
2024-04-12T14:55:58.614Z,1026.22
2024-04-12T14:57:43.624Z,1026.25
2024-04-12T14:59:29.639Z,1026.19
2024-04-12T15:01:13.672Z,1026.21
2024-04-12T15:02:58.673Z,1026.11
2024-04-12T15:04:43.642Z,1026.17
2024-04-12T15:06:28.586Z,1026.14
2024-04-12T15:08:13.610Z,1026.09
2024-04-12T15:09:58.675Z,1026.05
2024-04-12T15:11:43.694Z,1026.05
2024-04-12T15:13:28.642Z,1026.09
2024-04-12T15:15:13.776Z,1025.99
2024-04-12T15:16:58.652Z,1026
2024-04-12T15:18:43.854Z,1026.01
2024-04-12T15:20:28.631Z,1026.04
2024-04-12T15:22:13.639Z,1025.99
2024-04-12T15:23:58.661Z,1025.95
2024-04-12T15:25:43.664Z,1025.86
2024-04-12T15:27:28.652Z,1025.94
2024-04-12T15:29:13.611Z,1025.92
2024-04-12T15:30:58.665Z,1025.95
2024-04-12T15:32:43.713Z,1025.93
2024-04-12T15:34:28.714Z,1025.94
2024-04-12T15:36:13.667Z,1025.99
2024-04-12T15:37:58.671Z,1025.81
2024-04-12T15:39:43.627Z,1025.89
2024-04-12T15:41:28.668Z,1025.83
2024-04-12T15:43:13.670Z,1025.9
2024-04-12T15:44:58.687Z,1025.84
2024-04-12T15:46:43.694Z,1025.84
2024-04-12T15:48:28.803Z,1025.77
2024-04-12T15:50:13.912Z,1025.9
2024-04-12T15:51:58.657Z,1025.91
2024-04-12T15:53:43.725Z,1025.88
2024-04-12T15:55:28.703Z,1025.84
2024-04-12T15:57:13.759Z,1025.76
2024-04-12T15:58:58.728Z,1025.75
2024-04-12T16:00:43.668Z,1025.76
2024-04-12T16:02:28.714Z,1025.77
2024-04-12T16:04:13.786Z,1025.76
2024-04-12T16:05:58.722Z,1025.77
2024-04-12T16:07:43.795Z,1025.86
2024-04-12T16:09:28.764Z,1025.85
2024-04-12T16:11:13.748Z,1025.88
2024-04-12T16:12:58.735Z,1025.77
2024-04-12T16:14:43.734Z,1025.85
2024-04-12T16:16:28.727Z,1025.85
2024-04-12T16:18:13.777Z,1025.87
2024-04-12T16:19:58.772Z,1025.82
2024-04-12T16:21:43.705Z,1025.69
2024-04-12T16:23:28.858Z,1025.7
2024-04-12T16:25:13.706Z,1025.64
2024-04-12T16:26:58.707Z,1025.67
2024-04-12T16:28:43.765Z,1025.62
2024-04-12T16:30:28.769Z,1025.64
2024-04-12T16:32:13.748Z,1025.59
2024-04-12T16:33:58.901Z,1025.66
2024-04-12T16:35:43.752Z,1025.52
2024-04-12T16:37:28.720Z,1025.56
2024-04-12T16:39:13.778Z,1025.53
2024-04-12T16:40:58.776Z,1025.45
2024-04-12T16:42:43.738Z,1025.45
2024-04-12T16:44:28.739Z,1025.44
2024-04-12T16:46:13.748Z,1025.51
2024-04-12T16:47:59.884Z,1025.51
2024-04-12T16:49:43.757Z,1025.46
2024-04-12T16:51:28.760Z,1025.45
2024-04-12T16:53:13.753Z,1025.43
2024-04-12T16:54:58.761Z,1025.48
2024-04-12T16:56:43.747Z,1025.5
2024-04-12T16:58:28.760Z,1025.54
2024-04-12T17:00:13.836Z,1025.44
2024-04-12T17:01:58.728Z,1025.47
2024-04-12T17:03:43.902Z,1025.37
2024-04-12T17:05:28.730Z,1025.34
2024-04-12T17:07:13.765Z,1025.34
2024-04-12T17:08:59.808Z,1025.29
2024-04-12T17:10:43.796Z,1025.27
2024-04-12T17:12:28.827Z,1025.39
2024-04-12T17:14:14.124Z,1025.3
2024-04-12T17:15:58.771Z,1025.39
2024-04-12T17:17:43.824Z,1025.3
2024-04-12T17:19:28.777Z,1025.34
2024-04-12T17:21:13.848Z,1025.26
2024-04-12T17:22:58.769Z,1025.29
2024-04-12T17:24:43.830Z,1025.29
2024-04-12T17:26:28.778Z,1025.24
2024-04-12T17:28:13.795Z,1025.25
2024-04-12T17:29:58.887Z,1025.2
2024-04-12T17:31:43.830Z,1025.29
2024-04-12T17:33:28.835Z,1025.24
2024-04-12T17:35:13.848Z,1025.26
2024-04-12T17:36:58.826Z,1025.35
2024-04-12T17:38:43.802Z,1025.18
2024-04-12T17:40:28.808Z,1025.28
2024-04-12T17:42:13.903Z,1025.27
2024-04-12T17:43:58.835Z,1025.24
2024-04-12T17:45:43.805Z,1025.22
2024-04-12T17:47:28.841Z,1025.31
2024-04-12T17:49:13.869Z,1025.24
2024-04-12T17:50:58.811Z,1025.2
2024-04-12T17:52:43.833Z,1025.24
2024-04-12T17:54:29.802Z,1025.27
2024-04-12T17:56:13.837Z,1025.15
2024-04-12T17:57:59.680Z,1025.26
2024-04-12T17:59:43.860Z,1025.29
2024-04-12T18:01:28.866Z,1025.2
2024-04-12T18:03:13.936Z,1025.3
2024-04-12T18:04:58.957Z,1025.22
2024-04-12T18:06:43.857Z,1025.22
2024-04-12T18:08:28.849Z,1025.21
2024-04-12T18:10:14.207Z,1025.3
2024-04-12T18:11:59.162Z,1025.17
2024-04-12T18:13:43.845Z,1025.26
2024-04-12T18:15:29.004Z,1025.29
2024-04-12T18:17:13.877Z,1025.2
2024-04-12T18:18:58.911Z,1025.27
2024-04-12T18:20:43.890Z,1025.25
2024-04-12T18:22:28.856Z,1025.24
2024-04-12T18:24:13.888Z,1025.16
2024-04-12T18:25:58.884Z,1025.19
2024-04-12T18:27:44.219Z,1025.22
2024-04-12T18:29:28.889Z,1025.24
2024-04-12T18:31:13.885Z,1025.23
2024-04-12T18:32:59.003Z,1025.22
2024-04-12T18:34:43.905Z,1025.25
2024-04-12T18:36:28.978Z,1025.22
2024-04-12T18:38:13.924Z,1025.23
2024-04-12T18:39:58.915Z,1025.17
2024-04-12T18:41:43.875Z,1025.15
2024-04-12T18:43:28.920Z,1025.1
2024-04-12T18:45:16.838Z,1025.15
2024-04-12T18:46:58.916Z,1025.14
2024-04-12T18:48:44.021Z,1025.23
2024-04-12T18:50:28.930Z,1025.2
2024-04-12T18:52:13.924Z,1025.13
2024-04-12T18:53:58.929Z,1025.24
2024-04-12T18:55:43.919Z,1025.23
2024-04-12T18:57:28.933Z,1025.2
2024-04-12T18:59:13.958Z,1025.17
2024-04-12T19:00:58.945Z,1025.21
2024-04-12T19:02:43.969Z,1025.15
2024-04-12T19:04:28.960Z,1025.19
2024-04-12T19:06:13.922Z,1025.2
2024-04-12T19:07:58.929Z,1025.23
2024-04-12T19:09:43.974Z,1025.18
2024-04-12T19:11:28.944Z,1025.17
2024-04-12T19:13:15.029Z,1025.25
2024-04-12T19:14:58.958Z,1025.2
2024-04-12T19:16:43.956Z,1025.21
2024-04-12T19:18:29.080Z,1025.2
2024-04-12T19:20:13.984Z,1025.17
2024-04-12T19:21:58.969Z,1025.28
2024-04-12T19:23:43.930Z,1025.25
2024-04-12T19:25:28.949Z,1025.23
2024-04-12T19:27:13.992Z,1025.23
2024-04-12T19:28:58.972Z,1025.22
2024-04-12T19:30:43.938Z,1025.13
2024-04-12T19:32:28.983Z,1025.14
2024-04-12T19:34:14.078Z,1025.21
2024-04-12T19:35:58.956Z,1025.2
2024-04-12T19:37:44.001Z,1025.25
2024-04-12T19:39:29.047Z,1025.22
2024-04-12T19:41:13.960Z,1025.2
2024-04-12T19:42:59.008Z,1025.23
2024-04-12T19:44:43.964Z,1025.18
2024-04-12T19:46:28.979Z,1025.2
2024-04-12T19:48:14.010Z,1025.17
2024-04-12T19:49:58.985Z,1025.19
2024-04-12T19:51:43.980Z,1025.16
2024-04-12T19:53:29.026Z,1025.15
2024-04-12T19:55:14.008Z,1025.13
2024-04-12T19:56:58.991Z,1025.04
2024-04-12T19:58:43.996Z,1025.1
2024-04-12T20:00:29.018Z,1025.2
2024-04-12T20:02:14.007Z,1025.2
2024-04-12T20:03:59.042Z,1025.19
2024-04-12T20:05:43.973Z,1025.2
2024-04-12T20:07:29.007Z,1025.2
2024-04-12T20:09:14.062Z,1025.23
2024-04-12T20:10:59.083Z,1025.17
2024-04-12T20:12:43.996Z,1025.19
2024-04-12T20:14:28.998Z,1025.2
2024-04-12T20:16:14.008Z,1025.11
2024-04-12T20:17:59.505Z,1025.19
2024-04-12T20:19:43.995Z,1025.03
2024-04-12T20:21:29.117Z,1025.08
2024-04-12T20:23:14.021Z,1025.1
2024-04-12T20:24:59.049Z,1025.02
2024-04-12T20:26:43.993Z,1025.05
2024-04-12T20:28:29.030Z,1025.04
2024-04-12T20:30:14.058Z,1025.13
2024-04-12T20:31:59.030Z,1025.1
2024-04-12T20:33:44.415Z,1025.06
2024-04-12T20:35:29.037Z,1025.06
2024-04-12T20:37:14.067Z,1025.08
2024-04-12T20:38:59.058Z,1025.06
2024-04-12T20:40:44.222Z,1025.06
2024-04-12T20:42:29.059Z,1025.1
2024-04-12T20:44:14.040Z,1025.06
2024-04-12T20:45:59.047Z,1025.12
2024-04-12T20:47:44.350Z,1024.95
2024-04-12T20:49:29.122Z,1024.96
2024-04-12T20:51:14.059Z,1025.01
2024-04-12T20:52:59.079Z,1025.02
2024-04-12T20:54:44.050Z,1025.02
2024-04-12T20:56:29.071Z,1025.04
2024-04-12T20:58:14.052Z,1025.06
2024-04-12T20:59:59.078Z,1024.97
2024-04-12T21:01:44.066Z,1025.03
2024-04-12T21:03:29.161Z,1025
2024-04-12T21:05:14.168Z,1024.9
2024-04-12T21:06:59.078Z,1024.98
2024-04-12T21:08:44.079Z,1024.98
2024-04-12T21:10:29.088Z,1024.98
2024-04-12T21:12:14.134Z,1025.03
2024-04-12T21:13:59.081Z,1024.95
2024-04-12T21:15:44.133Z,1024.98